sensor_id;sensor_type;location;lat;lon;timestamp;pressure;altitude;pressure_sealevel;temperature;humidity
85078;BME280;75413;50.144;8.456;2024-03-23T00:52:44;98143.69;;;10.63;67.06
85078;BME280;75413;50.144;8.456;2024-03-23T00:55:29;98142.19;;;10.54;68.17
85078;BME280;75413;50.144;8.456;2024-03-23T00:58:13;98119.38;;;10.47;67.56
85078;BME280;75413;50.144;8.456;2024-03-23T01:00:57;98089.97;;;10.29;67.74
85078;BME280;75413;50.144;8.456;2024-03-23T01:03:41;98114.22;;;10.39;67.68
85078;BME280;75413;50.144;8.456;2024-03-23T01:06:25;98098.66;;;10.44;67.72
85078;BME280;75413;50.144;8.456;2024-03-23T01:09:09;98100.88;;;10.26;68.10
85078;BME280;75413;50.144;8.456;2024-03-23T01:11:54;98105.75;;;10.08;68.40
85078;BME280;75413;50.144;8.456;2024-03-23T01:14:38;98102.16;;;10.01;68.74
85078;BME280;75413;50.144;8.456;2024-03-23T01:17:22;98072.75;;;9.83;68.69
85078;BME280;75413;50.144;8.456;2024-03-23T01:20:06;98091.63;;;10.01;68.47
85078;BME280;75413;50.144;8.456;2024-03-23T01:22:50;98076.75;;;10.08;68.24
85078;BME280;75413;50.144;8.456;2024-03-23T01:25:34;98069.91;;;10.13;68.40
85078;BME280;75413;50.144;8.456;2024-03-23T01:28:21;98066.91;;;10.16;67.83
85078;BME280;75413;50.144;8.456;2024-03-23T01:31:06;98068.38;;;10.19;68.00
85078;BME280;75413;50.144;8.456;2024-03-23T01:33:50;98058.28;;;10.22;67.93
85078;BME280;75413;50.144;8.456;2024-03-23T01:36:34;98042.47;;;10.22;67.39
85078;BME280;75413;50.144;8.456;2024-03-23T01:39:18;98042.66;;;10.21;67.61
85078;BME280;75413;50.144;8.456;2024-03-23T01:42:02;98038.78;;;10.17;68.18
85078;BME280;75413;50.144;8.456;2024-03-23T01:44:46;98041.13;;;10.12;68.12
85078;BME280;75413;50.144;8.456;2024-03-23T01:47:30;98036.44;;;10.07;68.06
85078;BME280;75413;50.144;8.456;2024-03-23T01:50:14;98036.78;;;9.90;68.01
85078;BME280;75413;50.144;8.456;2024-03-23T01:52:58;98035.50;;;9.86;68.58
85078;BME280;75413;50.144;8.456;2024-03-23T01:55:42;98025.72;;;9.80;68.96
85078;BME280;75413;50.144;8.456;2024-03-23T01:58:26;98019.16;;;9.90;68.47
85078;BME280;75413;50.144;8.456;2024-03-23T02:01:10;98015.00;;;9.96;68.50
85078;BME280;75413;50.144;8.456;2024-03-23T02:03:54;98016.53;;;10.05;68.02
85078;BME280;75413;50.144;8.456;2024-03-23T02:06:38;98024.00;;;9.87;68.54
85078;BME280;75413;50.144;8.456;2024-03-23T02:09:22;98006.13;;;9.68;69.15
85078;BME280;75413;50.144;8.456;2024-03-23T02:12:06;98002.56;;;9.75;69.02
85078;BME280;75413;50.144;8.456;2024-03-23T02:14:51;98003.91;;;9.86;68.65
85078;BME280;75413;50.144;8.456;2024-03-23T02:17:35;97964.56;;;9.78;68.84
85078;BME280;75413;50.144;8.456;2024-03-23T02:20:19;97994.53;;;9.98;68.82
85078;BME280;75413;50.144;8.456;2024-03-23T02:23:04;97985.56;;;10.07;69.07
85078;BME280;75413;50.144;8.456;2024-03-23T02:25:49;97979.16;;;10.16;68.74
85078;BME280;75413;50.144;8.456;2024-03-23T02:28:33;97967.53;;;10.25;68.76
85078;BME280;75413;50.144;8.456;2024-03-23T02:31:17;97970.97;;;10.25;68.83
85078;BME280;75413;50.144;8.456;2024-03-23T02:34:01;97970.34;;;10.23;69.20
85078;BME280;75413;50.144;8.456;2024-03-23T02:36:45;97963.06;;;10.25;69.30
85078;BME280;75413;50.144;8.456;2024-03-23T02:39:29;97942.91;;;10.18;69.00
85078;BME280;75413;50.144;8.456;2024-03-23T02:42:13;97926.22;;;10.11;69.38
85078;BME280;75413;50.144;8.456;2024-03-23T02:44:58;97947.31;;;10.32;68.98
85078;BME280;75413;50.144;8.456;2024-03-23T02:47:42;97925.22;;;10.12;68.84
85078;BME280;75413;50.144;8.456;2024-03-23T02:50:26;97955.38;;;10.09;69.17
85078;BME280;75413;50.144;8.456;2024-03-23T02:53:10;97946.13;;;9.99;69.77
85078;BME280;75413;50.144;8.456;2024-03-23T02:55:54;97927.41;;;9.73;70.23
85078;BME280;75413;50.144;8.456;2024-03-23T02:58:38;97936.56;;;9.77;71.30
85078;BME280;75413;50.144;8.456;2024-03-23T03:01:22;97927.88;;;9.76;71.19
85078;BME280;75413;50.144;8.456;2024-03-23T03:04:06;97934.00;;;9.83;71.10
85078;BME280;75413;50.144;8.456;2024-03-23T03:06:50;97931.84;;;9.87;71.15
85078;BME280;75413;50.144;8.456;2024-03-23T03:09:34;97911.06;;;9.77;71.40
85078;BME280;75413;50.144;8.456;2024-03-23T03:12:19;97932.56;;;9.81;71.45
85078;BME280;75413;50.144;8.456;2024-03-23T03:15:04;97936.31;;;9.72;72.04
85078;BME280;75413;50.144;8.456;2024-03-23T03:17:49;97941.50;;;9.65;72.43
85078;BME280;75413;50.144;8.456;2024-03-23T03:20:33;97915.53;;;9.62;72.29
85078;BME280;75413;50.144;8.456;2024-03-23T03:23:17;97905.88;;;9.84;72.08
85078;BME280;75413;50.144;8.456;2024-03-23T03:26:02;97881.47;;;9.96;71.44
85078;BME280;75413;50.144;8.456;2024-03-23T03:28:46;97884.69;;;9.92;71.89
85078;BME280;75413;50.144;8.456;2024-03-23T03:31:33;97887.84;;;9.66;72.82
85078;BME280;75413;50.144;8.456;2024-03-23T03:34:17;97889.41;;;9.40;74.09
85078;BME280;75413;50.144;8.456;2024-03-23T03:37:01;97876.41;;;9.38;75.24
85078;BME280;75413;50.144;8.456;2024-03-23T03:39:45;97894.34;;;9.49;75.17
85078;BME280;75413;50.144;8.456;2024-03-23T03:42:29;97904.31;;;9.54;75.41
85078;BME280;75413;50.144;8.456;2024-03-23T03:45:13;97918.06;;;9.70;74.66
85078;BME280;75413;50.144;8.456;2024-03-23T03:47:56;97928.19;;;9.52;75.56
85078;BME280;75413;50.144;8.456;2024-03-23T03:50:41;97905.47;;;9.16;76.74
85078;BME280;75413;50.144;8.456;2024-03-23T03:53:25;97929.69;;;9.11;76.24
85078;BME280;75413;50.144;8.456;2024-03-23T03:56:10;97940.75;;;8.92;74.23
85078;BME280;75413;50.144;8.456;2024-03-23T03:58:54;97956.47;;;8.63;74.50
85078;BME280;75413;50.144;8.456;2024-03-23T04:01:38;97973.78;;;8.35;75.08
85078;BME280;75413;50.144;8.456;2024-03-23T04:04:22;97992.72;;;8.00;73.54
85078;BME280;75413;50.144;8.456;2024-03-23T04:07:06;97984.75;;;7.55;73.42
85078;BME280;75413;50.144;8.456;2024-03-23T04:09:50;97982.34;;;7.45;74.96
85078;BME280;75413;50.144;8.456;2024-03-23T04:12:34;97980.75;;;7.28;74.27
85078;BME280;75413;50.144;8.456;2024-03-23T04:15:18;97964.09;;;7.13;75.56
85078;BME280;75413;50.144;8.456;2024-03-23T04:18:02;97971.63;;;7.08;75.76
85078;BME280;75413;50.144;8.456;2024-03-23T04:20:47;97977.91;;;6.99;75.85
85078;BME280;75413;50.144;8.456;2024-03-23T04:23:31;97974.97;;;6.94;76.25
85078;BME280;75413;50.144;8.456;2024-03-23T04:26:15;97958.59;;;6.84;77.91
85078;BME280;75413;50.144;8.456;2024-03-23T04:28:59;97952.03;;;6.88;77.35
85078;BME280;75413;50.144;8.456;2024-03-23T04:31:43;97945.81;;;6.89;77.20
85078;BME280;75413;50.144;8.456;2024-03-23T04:34:27;97956.16;;;6.75;77.80
85078;BME280;75413;50.144;8.456;2024-03-23T04:37:11;97941.44;;;6.74;78.15
85078;BME280;75413;50.144;8.456;2024-03-23T04:39:55;97928.50;;;6.72;77.58
85078;BME280;75413;50.144;8.456;2024-03-23T04:42:39;97975.66;;;6.80;77.33
85078;BME280;75413;50.144;8.456;2024-03-23T04:45:23;97939.63;;;6.66;77.38
85078;BME280;75413;50.144;8.456;2024-03-23T04:48:08;97965.50;;;6.69;78.16
85078;BME280;75413;50.144;8.456;2024-03-23T04:50:55;97975.81;;;6.71;77.46
85078;BME280;75413;50.144;8.456;2024-03-23T04:53:41;97968.44;;;6.66;78.26
85078;BME280;75413;50.144;8.456;2024-03-23T04:56:25;97934.44;;;6.50;77.62
85078;BME280;75413;50.144;8.456;2024-03-23T04:59:09;97961.59;;;6.57;77.81
85078;BME280;75413;50.144;8.456;2024-03-23T05:01:53;97980.59;;;6.67;77.63
85078;BME280;75413;50.144;8.456;2024-03-23T05:04:37;97963.53;;;6.71;77.51
85078;BME280;75413;50.144;8.456;2024-03-23T05:07:21;97943.75;;;6.61;77.02
85078;BME280;75413;50.144;8.456;2024-03-23T05:10:05;97944.25;;;6.56;76.99
85078;BME280;75413;50.144;8.456;2024-03-23T05:12:49;97976.50;;;6.57;77.33
85078;BME280;75413;50.144;8.456;2024-03-23T05:15:33;97982.22;;;6.52;76.60
85078;BME280;75413;50.144;8.456;2024-03-23T05:18:17;97997.28;;;6.50;77.01
85078;BME280;75413;50.144;8.456;2024-03-23T05:21:02;98007.91;;;6.65;76.30
85078;BME280;75413;50.144;8.456;2024-03-23T05:23:45;98030.03;;;6.54;76.43
85078;BME280;75413;50.144;8.456;2024-03-23T05:26:30;97983.03;;;6.53;76.45
85078;BME280;75413;50.144;8.456;2024-03-23T05:29:14;98007.09;;;6.56;76.36
85078;BME280;75413;50.144;8.456;2024-03-23T05:32:01;98023.81;;;6.63;76.95
85078;BME280;75413;50.144;8.456;2024-03-23T05:34:45;98051.44;;;6.50;76.85
85078;BME280;75413;50.144;8.456;2024-03-23T05:37:29;98030.66;;;6.40;77.21
85078;BME280;75413;50.144;8.456;2024-03-23T05:40:15;98033.25;;;6.32;76.38
85078;BME280;75413;50.144;8.456;2024-03-23T05:42:59;98069.91;;;6.16;76.17
85078;BME280;75413;50.144;8.456;2024-03-23T05:45:43;98043.88;;;6.15;77.04
85078;BME280;75413;50.144;8.456;2024-03-23T05:48:27;98031.75;;;5.98;76.03
85078;BME280;75413;50.144;8.456;2024-03-23T05:51:11;98071.19;;;6.12;76.18
85078;BME280;75413;50.144;8.456;2024-03-23T05:53:56;98070.84;;;5.99;75.50
85078;BME280;75413;50.144;8.456;2024-03-23T05:56:41;98071.69;;;5.74;75.04
85078;BME280;75413;50.144;8.456;2024-03-23T05:59:24;98075.28;;;5.73;75.77
85078;BME280;75413;50.144;8.456;2024-03-23T06:02:08;98048.75;;;5.60;76.09
85078;BME280;75413;50.144;8.456;2024-03-23T06:04:54;98071.06;;;5.80;75.57
85078;BME280;75413;50.144;8.456;2024-03-23T06:07:38;98052.09;;;5.78;75.34
85078;BME280;75413;50.144;8.456;2024-03-23T06:10:22;98067.00;;;5.86;75.62
85078;BME280;75413;50.144;8.456;2024-03-23T06:13:06;98068.97;;;5.84;76.03
85078;BME280;75413;50.144;8.456;2024-03-23T06:15:50;98038.16;;;5.70;76.27
85078;BME280;75413;50.144;8.456;2024-03-23T06:18:34;98056.63;;;5.76;75.83
85078;BME280;75413;50.144;8.456;2024-03-23T06:21:18;98099.47;;;5.75;75.63
85078;BME280;75413;50.144;8.456;2024-03-23T06:24:02;98128.84;;;5.61;75.24
85078;BME280;75413;50.144;8.456;2024-03-23T06:26:46;98147.19;;;5.69;75.25
85078;BME280;75413;50.144;8.456;2024-03-23T06:29:30;98177.34;;;5.56;75.15
85078;BME280;75413;50.144;8.456;2024-03-23T06:32:14;98170.56;;;5.45;75.31
85078;BME280;75413;50.144;8.456;2024-03-23T06:34:58;98178.47;;;5.53;75.07
85078;BME280;75413;50.144;8.456;2024-03-23T06:37:42;98212.81;;;5.58;74.98
85078;BME280;75413;50.144;8.456;2024-03-23T06:40:26;98224.81;;;5.69;75.13
85078;BME280;75413;50.144;8.456;2024-03-23T06:43:09;98210.06;;;5.60;74.48
85078;BME280;75413;50.144;8.456;2024-03-23T06:45:54;98242.97;;;5.70;74.68
85078;BME280;75413;50.144;8.456;2024-03-23T06:48:38;98257.34;;;5.66;74.04
85078;BME280;75413;50.144;8.456;2024-03-23T06:51:22;98226.31;;;5.46;74.48
85078;BME280;75413;50.144;8.456;2024-03-23T06:54:06;98226.44;;;5.44;73.96
85078;BME280;75413;50.144;8.456;2024-03-23T06:56:50;98229.63;;;5.56;73.05
85078;BME280;75413;50.144;8.456;2024-03-23T06:59:34;98239.66;;;5.60;73.04
85078;BME280;75413;50.144;8.456;2024-03-23T07:02:18;98253.69;;;5.59;73.04
85078;BME280;75413;50.144;8.456;2024-03-23T07:05:02;98262.13;;;5.53;71.83
85078;BME280;75413;50.144;8.456;2024-03-23T07:07:47;98261.09;;;5.46;71.58
85078;BME280;75413;50.144;8.456;2024-03-23T07:10:31;98277.53;;;5.56;71.76
85078;BME280;75413;50.144;8.456;2024-03-23T07:13:15;98239.59;;;5.52;71.77
85078;BME280;75413;50.144;8.456;2024-03-23T07:16:00;98254.06;;;5.47;71.90
85078;BME280;75413;50.144;8.456;2024-03-23T07:18:44;98280.00;;;5.58;71.33
85078;BME280;75413;50.144;8.456;2024-03-23T07:21:28;98286.94;;;5.67;71.32
85078;BME280;75413;50.144;8.456;2024-03-23T07:24:13;98281.50;;;5.60;71.30
85078;BME280;75413;50.144;8.456;2024-03-23T07:26:57;98292.53;;;5.72;71.82
85078;BME280;75413;50.144;8.456;2024-03-23T07:29:41;98294.66;;;5.76;71.21
85078;BME280;75413;50.144;8.456;2024-03-23T07:32:25;98319.16;;;5.85;71.46
85078;BME280;75413;50.144;8.456;2024-03-23T07:35:10;98302.03;;;5.90;71.50
85078;BME280;75413;50.144;8.456;2024-03-23T07:37:54;98316.44;;;5.94;70.68
85078;BME280;75413;50.144;8.456;2024-03-23T07:40:39;98298.72;;;5.88;70.72
85078;BME280;75413;50.144;8.456;2024-03-23T07:43:23;98309.88;;;5.90;70.16
85078;BME280;75413;50.144;8.456;2024-03-23T07:46:07;98336.34;;;6.13;70.44
85078;BME280;75413;50.144;8.456;2024-03-23T07:48:51;98343.41;;;6.12;69.25
85078;BME280;75413;50.144;8.456;2024-03-23T07:51:35;98369.72;;;6.36;69.31
85078;BME280;75413;50.144;8.456;2024-03-23T07:54:19;98330.28;;;6.38;69.04
85078;BME280;75413;50.144;8.456;2024-03-23T07:57:04;98353.19;;;6.61;68.96
85078;BME280;75413;50.144;8.456;2024-03-23T07:59:48;98350.44;;;6.71;68.13
85078;BME280;75413;50.144;8.456;2024-03-23T08:02:32;98353.66;;;6.65;67.37
85078;BME280;75413;50.144;8.456;2024-03-23T08:05:16;98357.44;;;6.62;68.78
85078;BME280;75413;50.144;8.456;2024-03-23T08:08:00;98348.13;;;6.68;68.25
85078;BME280;75413;50.144;8.456;2024-03-23T08:10:51;98366.25;;;6.95;67.51
85078;BME280;75413;50.144;8.456;2024-03-23T08:13:38;98369.75;;;7.03;66.80
85078;BME280;75413;50.144;8.456;2024-03-23T08:16:22;98378.81;;;7.17;66.80
85078;BME280;75413;50.144;8.456;2024-03-23T08:19:07;98382.56;;;7.06;67.55
85078;BME280;75413;50.144;8.456;2024-03-23T08:21:52;98401.16;;;6.95;67.58
85078;BME280;75413;50.144;8.456;2024-03-23T08:24:38;98384.78;;;7.01;67.31
85078;BME280;75413;50.144;8.456;2024-03-23T08:27:22;98374.50;;;7.08;66.50
85078;BME280;75413;50.144;8.456;2024-03-23T08:30:06;98369.78;;;7.11;65.92
85078;BME280;75413;50.144;8.456;2024-03-23T08:32:51;98360.75;;;7.06;66.35
85078;BME280;75413;50.144;8.456;2024-03-23T08:35:35;98354.06;;;7.27;64.91
85078;BME280;75413;50.144;8.456;2024-03-23T08:38:19;98366.41;;;7.35;64.34
85078;BME280;75413;50.144;8.456;2024-03-23T08:41:04;98393.00;;;7.48;64.26
85078;BME280;75413;50.144;8.456;2024-03-23T08:43:49;98379.56;;;7.43;64.59
85078;BME280;75413;50.144;8.456;2024-03-23T08:46:33;98397.44;;;7.55;63.98
85078;BME280;75413;50.144;8.456;2024-03-23T08:49:17;98383.16;;;7.50;63.55
85078;BME280;75413;50.144;8.456;2024-03-23T08:52:02;98394.75;;;7.31;63.92
85078;BME280;75413;50.144;8.456;2024-03-23T08:54:46;98371.09;;;7.15;63.84
85078;BME280;75413;50.144;8.456;2024-03-23T08:57:30;98392.97;;;7.40;62.17
85078;BME280;75413;50.144;8.456;2024-03-23T09:00:14;98390.09;;;7.17;61.80
85078;BME280;75413;50.144;8.456;2024-03-23T09:02:58;98411.19;;;7.41;61.46
85078;BME280;75413;50.144;8.456;2024-03-23T09:05:42;98408.41;;;7.51;61.96
85078;BME280;75413;50.144;8.456;2024-03-23T09:08:26;98421.41;;;7.68;61.36
85078;BME280;75413;50.144;8.456;2024-03-23T09:11:14;98410.78;;;7.78;60.31
85078;BME280;75413;50.144;8.456;2024-03-23T09:13:58;98406.31;;;7.78;61.00
85078;BME280;75413;50.144;8.456;2024-03-23T09:16:42;98415.22;;;7.94;59.96
85078;BME280;75413;50.144;8.456;2024-03-23T09:19:29;98427.06;;;8.30;58.31
85078;BME280;75413;50.144;8.456;2024-03-23T09:22:13;98415.09;;;8.43;57.24
85078;BME280;75413;50.144;8.456;2024-03-23T09:24:57;98430.47;;;8.70;56.58
85078;BME280;75413;50.144;8.456;2024-03-23T09:27:41;98401.88;;;8.75;56.53
85078;BME280;75413;50.144;8.456;2024-03-23T09:30:25;98390.34;;;8.84;53.05
85078;BME280;75413;50.144;8.456;2024-03-23T09:33:10;98443.09;;;8.83;53.09
85078;BME280;75413;50.144;8.456;2024-03-23T09:35:54;98424.91;;;8.73;53.82
85078;BME280;75413;50.144;8.456;2024-03-23T09:38:39;98424.16;;;9.03;52.60
85078;BME280;75413;50.144;8.456;2024-03-23T09:41:24;98414.22;;;9.21;51.53
85078;BME280;75413;50.144;8.456;2024-03-23T09:44:08;98414.44;;;9.12;50.78
85078;BME280;75413;50.144;8.456;2024-03-23T09:46:52;98422.75;;;8.69;52.49
85078;BME280;75413;50.144;8.456;2024-03-23T09:49:37;98421.81;;;8.54;53.43
85078;BME280;75413;50.144;8.456;2024-03-23T09:52:21;98449.03;;;8.69;52.34
85078;BME280;75413;50.144;8.456;2024-03-23T09:55:05;98438.84;;;8.74;52.48
85078;BME280;75413;50.144;8.456;2024-03-23T09:57:50;98431.91;;;8.97;50.75
85078;BME280;75413;50.144;8.456;2024-03-23T10:00:34;98452.19;;;9.27;50.65
85078;BME280;75413;50.144;8.456;2024-03-23T10:03:18;98428.69;;;9.25;47.70
85078;BME280;75413;50.144;8.456;2024-03-23T10:06:03;98419.53;;;9.05;47.44
85078;BME280;75413;50.144;8.456;2024-03-23T10:08:48;98423.81;;;9.06;48.82
85078;BME280;75413;50.144;8.456;2024-03-23T10:11:32;98422.97;;;9.14;48.68
85078;BME280;75413;50.144;8.456;2024-03-23T10:14:29;98420.59;;;9.35;48.41
85078;BME280;75413;50.144;8.456;2024-03-23T10:17:18;98418.44;;;9.38;47.13
85078;BME280;75413;50.144;8.456;2024-03-23T10:20:03;98411.72;;;9.36;47.73
85078;BME280;75413;50.144;8.456;2024-03-23T10:22:50;98389.81;;;9.35;46.69
85078;BME280;75413;50.144;8.456;2024-03-23T10:25:35;98404.44;;;9.38;45.84
85078;BME280;75413;50.144;8.456;2024-03-23T10:28:19;98415.09;;;9.44;45.73
85078;BME280;75413;50.144;8.456;2024-03-23T10:31:11;98403.13;;;9.42;46.33
85078;BME280;75413;50.144;8.456;2024-03-23T10:33:56;98405.38;;;9.14;46.47
85078;BME280;75413;50.144;8.456;2024-03-23T10:36:41;98405.69;;;9.19;46.64
85078;BME280;75413;50.144;8.456;2024-03-23T10:39:25;98413.94;;;9.16;46.74
85078;BME280;75413;50.144;8.456;2024-03-23T10:42:09;98447.78;;;8.41;54.75
85078;BME280;75413;50.144;8.456;2024-03-23T10:44:58;98501.38;;;6.89;63.71
85078;BME280;75413;50.144;8.456;2024-03-23T10:47:44;98477.69;;;6.13;69.48
85078;BME280;75413;50.144;8.456;2024-03-23T10:50:28;98456.06;;;6.28;67.70
85078;BME280;75413;50.144;8.456;2024-03-23T10:53:13;98452.84;;;6.34;68.48
85078;BME280;75413;50.144;8.456;2024-03-23T10:55:58;98452.06;;;6.59;69.46
85078;BME280;75413;50.144;8.456;2024-03-23T10:58:45;98433.06;;;6.83;66.97
85078;BME280;75413;50.144;8.456;2024-03-23T11:01:30;98445.03;;;7.19;66.50
85078;BME280;75413;50.144;8.456;2024-03-23T11:04:29;98439.38;;;7.47;64.65
85078;BME280;75413;50.144;8.456;2024-03-23T11:07:32;98439.13;;;7.67;65.16
85078;BME280;75413;50.144;8.456;2024-03-23T11:10:26;98445.72;;;7.87;62.32
85078;BME280;75413;50.144;8.456;2024-03-23T11:13:21;98443.56;;;7.74;61.07
85078;BME280;75413;50.144;8.456;2024-03-23T11:16:25;98451.56;;;7.64;58.80
85078;BME280;75413;50.144;8.456;2024-03-23T11:19:34;98437.69;;;7.88;60.20
85078;BME280;75413;50.144;8.456;2024-03-23T11:25:26;98440.19;;;8.06;60.58
85078;BME280;75413;50.144;8.456;2024-03-23T11:28:11;98422.28;;;8.09;59.31
85078;BME280;75413;50.144;8.456;2024-03-23T11:30:55;98421.00;;;8.21;58.16
85078;BME280;75413;50.144;8.456;2024-03-23T11:33:39;98411.94;;;8.16;60.15
85078;BME280;75413;50.144;8.456;2024-03-23T11:36:23;98411.31;;;8.06;60.11
85078;BME280;75413;50.144;8.456;2024-03-23T11:39:15;98410.78;;;8.10;60.80
85078;BME280;75413;50.144;8.456;2024-03-23T11:42:02;98410.97;;;7.93;60.87
85078;BME280;75413;50.144;8.456;2024-03-23T11:44:46;98415.38;;;7.92;62.33
85078;BME280;75413;50.144;8.456;2024-03-23T11:47:31;98413.13;;;8.21;61.33
85078;BME280;75413;50.144;8.456;2024-03-23T11:50:21;98398.50;;;8.35;59.71
85078;BME280;75413;50.144;8.456;2024-03-23T11:55:56;98380.19;;;8.81;57.13
85078;BME280;75413;50.144;8.456;2024-03-23T11:58:40;98363.88;;;8.94;56.46
85078;BME280;75413;50.144;8.456;2024-03-23T12:01:24;98363.94;;;9.16;56.41
85078;BME280;75413;50.144;8.456;2024-03-23T12:04:08;98368.47;;;9.61;55.41
85078;BME280;75413;50.144;8.456;2024-03-23T12:07:12;98374.63;;;9.76;53.92
85078;BME280;75413;50.144;8.456;2024-03-23T12:10:05;98356.34;;;10.05;53.72
85078;BME280;75413;50.144;8.456;2024-03-23T12:13:00;98340.03;;;10.01;53.56
85078;BME280;75413;50.144;8.456;2024-03-23T12:15:50;98362.31;;;10.36;51.81
85078;BME280;75413;50.144;8.456;2024-03-23T12:18:35;98357.88;;;10.36;51.41
85078;BME280;75413;50.144;8.456;2024-03-23T12:21:19;98334.63;;;10.54;48.82
85078;BME280;75413;50.144;8.456;2024-03-23T12:24:02;98333.50;;;10.49;48.60
85078;BME280;75413;50.144;8.456;2024-03-23T12:26:47;98321.50;;;10.46;49.17
85078;BME280;75413;50.144;8.456;2024-03-23T12:29:34;98302.63;;;10.57;46.89
85078;BME280;75413;50.144;8.456;2024-03-23T12:32:18;98341.09;;;10.66;47.59
85078;BME280;75413;50.144;8.456;2024-03-23T12:35:02;98339.41;;;10.65;47.33
85078;BME280;75413;50.144;8.456;2024-03-23T12:37:47;98330.53;;;10.52;46.51
85078;BME280;75413;50.144;8.456;2024-03-23T12:40:31;98329.09;;;10.64;46.32
85078;BME280;75413;50.144;8.456;2024-03-23T12:43:15;98325.06;;;10.82;46.65
85078;BME280;75413;50.144;8.456;2024-03-23T12:45:59;98322.81;;;10.65;47.23
85078;BME280;75413;50.144;8.456;2024-03-23T12:48:44;98322.22;;;10.26;48.72
85078;BME280;75413;50.144;8.456;2024-03-23T12:51:29;98320.25;;;10.05;50.39
85078;BME280;75413;50.144;8.456;2024-03-23T12:54:13;98317.63;;;9.83;50.80
85078;BME280;75413;50.144;8.456;2024-03-23T12:56:57;98346.50;;;9.76;49.61
85078;BME280;75413;50.144;8.456;2024-03-23T12:59:40;98380.97;;;9.59;50.77
85078;BME280;75413;50.144;8.456;2024-03-23T13:02:24;98414.41;;;8.41;56.47
85078;BME280;75413;50.144;8.456;2024-03-23T13:05:08;98417.69;;;6.88;78.10
85078;BME280;75413;50.144;8.456;2024-03-23T13:07:52;98447.53;;;6.09;70.05
85078;BME280;75413;50.144;8.456;2024-03-23T13:10:36;98491.03;;;5.75;71.34
85078;BME280;75413;50.144;8.456;2024-03-23T13:13:20;98473.34;;;5.59;70.04
85078;BME280;75413;50.144;8.456;2024-03-23T13:16:05;98448.25;;;5.66;72.68
85078;BME280;75413;50.144;8.456;2024-03-23T13:18:49;98423.75;;;5.67;72.88
85078;BME280;75413;50.144;8.456;2024-03-23T13:21:33;98444.78;;;6.10;71.32
85078;BME280;75413;50.144;8.456;2024-03-23T13:24:25;98463.91;;;6.28;71.40
85078;BME280;75413;50.144;8.456;2024-03-23T13:27:09;98459.69;;;6.10;70.02
85078;BME280;75413;50.144;8.456;2024-03-23T13:29:54;98433.75;;;5.81;71.91
85078;BME280;75413;50.144;8.456;2024-03-23T13:32:38;98426.53;;;6.18;70.78
85078;BME280;75413;50.144;8.456;2024-03-23T13:35:22;98396.81;;;6.78;71.34
85078;BME280;75413;50.144;8.456;2024-03-23T13:38:09;98384.06;;;7.17;69.77
85078;BME280;75413;50.144;8.456;2024-03-23T13:40:58;98403.44;;;7.32;66.31
85078;BME280;75413;50.144;8.456;2024-03-23T13:43:42;98381.53;;;7.49;68.75
85078;BME280;75413;50.144;8.456;2024-03-23T13:46:26;98380.44;;;8.16;65.74
85078;BME280;75413;50.144;8.456;2024-03-23T13:49:24;98386.34;;;8.58;64.26
85078;BME280;75413;50.144;8.456;2024-03-23T13:52:08;98407.84;;;8.45;63.21
85078;BME280;75413;50.144;8.456;2024-03-23T13:54:52;98381.53;;;8.77;62.24
85078;BME280;75413;50.144;8.456;2024-03-23T13:57:36;98395.22;;;9.11;60.54
85078;BME280;75413;50.144;8.456;2024-03-23T14:00:20;98382.09;;;8.49;59.93
85078;BME280;75413;50.144;8.456;2024-03-23T14:03:04;98392.06;;;7.89;63.25
85078;BME280;75413;50.144;8.456;2024-03-23T14:05:49;98392.25;;;8.20;63.54
85078;BME280;75413;50.144;8.456;2024-03-23T14:08:37;98394.88;;;7.96;63.44
85078;BME280;75413;50.144;8.456;2024-03-23T14:11:23;98387.00;;;8.44;61.82
85078;BME280;75413;50.144;8.456;2024-03-23T14:14:07;98373.22;;;8.96;59.34
85078;BME280;75413;50.144;8.456;2024-03-23T14:16:52;98375.25;;;9.25;57.70
85078;BME280;75413;50.144;8.456;2024-03-23T14:19:36;98374.38;;;9.63;56.82
85078;BME280;75413;50.144;8.456;2024-03-23T14:22:20;98378.75;;;9.48;54.14
85078;BME280;75413;50.144;8.456;2024-03-23T14:25:07;98372.03;;;9.68;55.89
85078;BME280;75413;50.144;8.456;2024-03-23T14:27:51;98355.72;;;10.17;53.32
85078;BME280;75413;50.144;8.456;2024-03-23T14:30:35;98344.94;;;10.04;52.03
85078;BME280;75413;50.144;8.456;2024-03-23T14:33:19;98348.19;;;10.29;50.44
85078;BME280;75413;50.144;8.456;2024-03-23T14:36:03;98357.13;;;10.05;51.50
85078;BME280;75413;50.144;8.456;2024-03-23T14:38:48;98343.25;;;9.89;51.76
85078;BME280;75413;50.144;8.456;2024-03-23T14:41:32;98331.84;;;10.19;50.84
85078;BME280;75413;50.144;8.456;2024-03-23T14:44:16;98353.53;;;10.58;49.95
85078;BME280;75413;50.144;8.456;2024-03-23T14:47:00;98326.97;;;10.74;48.86
85078;BME280;75413;50.144;8.456;2024-03-23T14:49:44;98346.31;;;11.10;49.21
85078;BME280;75413;50.144;8.456;2024-03-23T14:52:34;98347.59;;;10.99;46.70
85078;BME280;75413;50.144;8.456;2024-03-23T14:55:18;98353.41;;;10.37;46.00
85078;BME280;75413;50.144;8.456;2024-03-23T14:58:01;98339.63;;;10.12;47.11
85078;BME280;75413;50.144;8.456;2024-03-23T15:00:45;98340.19;;;10.08;47.53
85078;BME280;75413;50.144;8.456;2024-03-23T15:03:29;98339.38;;;10.22;47.16
85078;BME280;75413;50.144;8.456;2024-03-23T15:06:13;98349.28;;;10.20;47.52
85078;BME280;75413;50.144;8.456;2024-03-23T15:08:57;98337.19;;;9.66;48.24
85078;BME280;75413;50.144;8.456;2024-03-23T15:11:41;98323.72;;;9.38;49.38
85078;BME280;75413;50.144;8.456;2024-03-23T15:14:25;98320.03;;;9.17;49.75
85078;BME280;75413;50.144;8.456;2024-03-23T15:17:09;98328.78;;;9.09;50.45
85078;BME280;75413;50.144;8.456;2024-03-23T15:19:53;98315.91;;;8.92;50.07
85078;BME280;75413;50.144;8.456;2024-03-23T15:22:40;98311.66;;;8.83;50.27
85078;BME280;75413;50.144;8.456;2024-03-23T15:25:24;98359.47;;;8.86;50.64
85078;BME280;75413;50.144;8.456;2024-03-23T15:28:08;98506.34;;;7.59;60.45
85078;BME280;75413;50.144;8.456;2024-03-23T15:30:52;98406.19;;;4.88;100.00
85078;BME280;75413;50.144;8.456;2024-03-23T15:33:36;98410.88;;;4.85;100.00
85078;BME280;75413;50.144;8.456;2024-03-23T15:36:20;98398.25;;;5.07;83.59
85078;BME280;75413;50.144;8.456;2024-03-23T15:39:05;98448.97;;;5.14;75.29
85078;BME280;75413;50.144;8.456;2024-03-23T15:41:49;98404.34;;;4.98;73.63